Skip Navigation LinksHome page > Weather > Current weather Skip Navigation Links

Current Weather

Heathrow, London

For information only: do not use for flight planning or navigation.
Latest weather
Observation time Thursday, October 2, 2014 10:50 AM BST
Local time Thursday, October 2, 2014 11:24 AM BST
Flight conditions Visual Meteorological Conditions
Winds
Wind direction variable
Wind speed 2 mph
Visibility 6.2 mi.
Sky condition
Ceiling unlimited
Cloud layer few clouds 1,600 ft.
Temperature 64°F
Dewpoint 57°F
Altimeter 30.39 in.Hg
Derived measurements
Relative humidity 77%
Density altitude 45 ft.
Remarks
Corrected report.
No significant changes expected in the next two hours.
METAR COR EGLL 020950Z VRB02KT 9999 FEW016 18/14 Q1029 NOSIG

Settings

Location code

InnerDrive.Weather 4.0.5372.0 Release CLR 4.0.30319.34014
Copyright ©2014 Inner Drive Technology. All rights reserved. Portions Copyright ©1986-2014 David Braverman.

Find weather

Site navigation


Skip Navigation Links

Place info

Page info

PayPal - The safer, easier way to pay online!

Return home.

Copyright ©2014 Inner Drive Technology. Purveyors of fine, hand-crafted computer software. Page printed 2014-10-02T10:24:50 UTC.